createdAt,value
2019-02-21T00:02:22.677Z,61.03
2019-02-21T00:04:48.988Z,60.85
2019-02-21T00:07:15.288Z,61.03
2019-02-21T00:09:41.607Z,61.00
2019-02-21T00:12:07.908Z,60.97
2019-02-21T00:14:34.211Z,61.30
2019-02-21T00:17:00.516Z,61.59
2019-02-21T00:19:26.824Z,61.53
2019-02-21T00:21:53.133Z,61.41
2019-02-21T00:24:19.466Z,61.77
2019-02-21T00:26:45.773Z,62.47
2019-02-21T00:29:12.075Z,62.75
2019-02-21T00:31:40.131Z,62.89
2019-02-21T00:34:05.741Z,62.57
2019-02-21T00:36:32.047Z,62.82
2019-02-21T00:38:58.427Z,63.79
2019-02-21T00:41:24.736Z,63.84
2019-02-21T00:43:51.049Z,63.81
2019-02-21T00:46:17.377Z,63.59
2019-02-21T00:48:43.682Z,64.10
2019-02-21T00:51:09.988Z,64.54
2019-02-21T00:53:36.292Z,64.96
2019-02-21T00:56:02.608Z,64.97
2019-02-21T00:58:28.914Z,65.54
2019-02-21T01:00:55.227Z,65.85
2019-02-21T01:03:21.539Z,65.95
2019-02-21T01:05:47.845Z,65.87
2019-02-21T01:08:14.154Z,65.91
2019-02-21T01:10:40.467Z,66.04
2019-02-21T01:13:06.812Z,66.06
2019-02-21T01:15:33.085Z,66.07
2019-02-21T01:17:59.397Z,66.20
2019-02-21T01:20:25.704Z,66.09
2019-02-21T01:22:52.013Z,66.13
2019-02-21T01:25:18.316Z,66.03
2019-02-21T01:27:44.628Z,66.06
2019-02-21T01:30:10.944Z,66.03
2019-02-21T01:32:37.260Z,65.51
2019-02-21T01:35:03.566Z,65.86
2019-02-21T01:37:29.878Z,66.15
2019-02-21T01:39:56.185Z,65.97
2019-02-21T01:42:22.492Z,65.88
2019-02-21T01:44:48.801Z,65.93
2019-02-21T01:47:15.108Z,65.87
2019-02-21T01:49:41.428Z,65.95
2019-02-21T01:52:07.739Z,66.23
2019-02-21T01:54:34.043Z,65.80
2019-02-21T01:57:00.352Z,65.56
2019-02-21T01:59:26.660Z,65.55
2019-02-21T02:01:52.969Z,65.04
2019-02-21T02:04:19.277Z,64.83
2019-02-21T02:06:45.587Z,65.03
2019-02-21T02:09:11.922Z,64.85
2019-02-21T02:11:38.220Z,63.93
2019-02-21T02:14:04.531Z,63.88
2019-02-21T02:16:30.841Z,63.58
2019-02-21T02:18:57.143Z,63.44
2019-02-21T02:21:23.455Z,63.35
2019-02-21T02:23:49.763Z,63.52
2019-02-21T02:26:16.097Z,63.74
2019-02-21T02:28:42.408Z,63.98
2019-02-21T02:31:21.541Z,63.69
2019-02-21T02:33:35.029Z,63.80
2019-02-21T02:36:01.335Z,63.77
2019-02-21T02:38:27.645Z,63.96
2019-02-21T02:40:53.960Z,64.22
2019-02-21T02:43:20.284Z,64.61
2019-02-21T02:45:46.585Z,64.83
2019-02-21T02:48:12.909Z,64.89
2019-02-21T02:50:39.203Z,64.82
2019-02-21T02:53:05.512Z,64.95
2019-02-21T02:55:31.826Z,64.96
2019-02-21T02:57:58.135Z,65.10
2019-02-21T03:00:24.446Z,65.66
2019-02-21T03:02:50.778Z,65.58
2019-02-21T03:05:17.129Z,65.49
2019-02-21T03:07:43.389Z,65.01
2019-02-21T03:10:09.699Z,64.73
2019-02-21T03:12:36.009Z,64.03
2019-02-21T03:15:02.340Z,63.97
2019-02-21T03:17:28.626Z,63.47
2019-02-21T03:19:54.937Z,63.59
2019-02-21T03:22:21.246Z,62.96
2019-02-21T03:24:47.561Z,63.06
2019-02-21T03:27:13.868Z,62.65
2019-02-21T03:29:40.198Z,62.58
2019-02-21T03:32:06.535Z,62.79
2019-02-21T03:34:32.840Z,62.56
2019-02-21T03:36:59.145Z,62.84
2019-02-21T03:39:25.484Z,63.44
2019-02-21T03:41:51.761Z,63.14
2019-02-21T03:44:18.072Z,63.59
2019-02-21T03:46:44.380Z,64.10
2019-02-21T03:49:10.687Z,64.20
2019-02-21T03:51:36.991Z,63.85
2019-02-21T03:54:03.315Z,64.07
2019-02-21T03:56:29.620Z,63.99
2019-02-21T03:58:55.934Z,64.23
2019-02-21T04:01:22.248Z,65.00
2019-02-21T04:03:48.583Z,65.06
2019-02-21T04:06:14.897Z,65.32
2019-02-21T04:08:41.214Z,65.78
2019-02-21T04:11:07.525Z,66.05
2019-02-21T04:13:33.827Z,66.44
2019-02-21T04:16:00.139Z,66.91
2019-02-21T04:18:26.446Z,67.40
2019-02-21T04:20:52.753Z,67.51
2019-02-21T04:23:19.056Z,68.19
2019-02-21T04:25:45.365Z,68.18
2019-02-21T04:28:11.665Z,68.07
2019-02-21T04:30:37.980Z,66.74
2019-02-21T04:33:04.285Z,65.87
2019-02-21T04:35:30.592Z,65.19
2019-02-21T04:37:56.940Z,64.97
2019-02-21T04:40:23.246Z,63.98
2019-02-21T04:42:49.554Z,63.52
2019-02-21T04:45:15.856Z,61.77
2019-02-21T04:47:42.165Z,61.63
2019-02-21T04:50:08.472Z,60.97
2019-02-21T04:52:34.793Z,60.72
2019-02-21T04:55:01.112Z,60.44
2019-02-21T04:57:27.430Z,60.19
2019-02-21T04:59:53.735Z,60.09
2019-02-21T05:02:28.498Z,59.77
2019-02-21T05:04:46.355Z,60.37
2019-02-21T05:07:12.660Z,60.19
2019-02-21T05:09:38.972Z,59.14
2019-02-21T05:12:05.275Z,59.20
2019-02-21T05:14:31.587Z,59.06
2019-02-21T05:17:00.528Z,58.66
2019-02-21T05:19:24.209Z,58.90
2019-02-21T05:21:50.518Z,59.41
2019-02-21T05:24:16.825Z,59.10
2019-02-21T05:26:43.142Z,58.86
2019-02-21T05:29:09.455Z,59.72
2019-02-21T05:31:35.763Z,58.51
2019-02-21T05:34:02.072Z,59.22
2019-02-21T05:36:28.382Z,59.39
2019-02-21T05:38:54.713Z,59.49
2019-02-21T05:41:21.029Z,59.28
2019-02-21T05:43:47.339Z,59.13
2019-02-21T05:46:13.645Z,59.00
2019-02-21T05:48:40.290Z,59.64
2019-02-21T05:51:06.257Z,59.72
2019-02-21T05:53:32.565Z,59.83
2019-02-21T05:55:58.872Z,59.90
2019-02-21T05:58:25.187Z,58.78
2019-02-21T06:00:51.493Z,57.66
2019-02-21T06:03:17.812Z,58.18
2019-02-21T06:05:44.126Z,57.90
2019-02-21T06:08:10.435Z,57.90
2019-02-21T06:10:36.747Z,56.43
2019-02-21T06:13:03.062Z,55.75
2019-02-21T06:15:29.367Z,55.58
2019-02-21T06:17:55.679Z,55.90
2019-02-21T06:20:21.996Z,55.29
2019-02-21T06:22:48.303Z,54.91
2019-02-21T06:25:14.617Z,55.16
2019-02-21T06:27:40.929Z,56.13
2019-02-21T06:30:07.236Z,55.94
2019-02-21T06:32:33.549Z,56.89
2019-02-21T06:35:02.404Z,56.41
2019-02-21T06:37:26.157Z,55.36
2019-02-21T06:39:52.495Z,55.00
2019-02-21T06:42:18.787Z,55.20
2019-02-21T06:44:45.104Z,55.14
2019-02-21T06:47:11.416Z,54.27
2019-02-21T06:49:37.725Z,54.31
2019-02-21T06:52:04.054Z,54.47
2019-02-21T06:54:30.353Z,54.65
2019-02-21T06:56:56.659Z,53.95
2019-02-21T06:59:23.735Z,53.54
2019-02-21T07:01:49.278Z,53.43
2019-02-21T07:04:15.587Z,52.67
2019-02-21T07:06:41.893Z,51.91
2019-02-21T07:09:08.199Z,52.48
2019-02-21T07:11:34.509Z,52.37
2019-02-21T07:14:00.829Z,53.08
2019-02-21T07:16:27.136Z,53.20
2019-02-21T07:18:53.450Z,53.05
2019-02-21T07:21:19.761Z,53.12
2019-02-21T07:23:46.067Z,53.55
2019-02-21T07:26:12.368Z,54.28
2019-02-21T07:28:40.878Z,54.55
2019-02-21T07:31:05.009Z,53.85
2019-02-21T07:33:31.338Z,53.56
2019-02-21T07:35:57.643Z,52.56
2019-02-21T07:38:23.970Z,51.79
2019-02-21T07:40:50.269Z,51.74
2019-02-21T07:43:16.593Z,51.86
2019-02-21T07:45:42.904Z,51.84
2019-02-21T07:48:09.209Z,52.29
2019-02-21T07:50:35.521Z,51.98
2019-02-21T07:53:02.830Z,52.32
2019-02-21T07:55:28.280Z,52.39
2019-02-21T07:57:54.585Z,53.41
2019-02-21T08:00:20.897Z,54.36
2019-02-21T08:02:47.227Z,55.13
2019-02-21T08:05:13.537Z,55.66
2019-02-21T08:07:39.842Z,56.09
2019-02-21T08:10:06.159Z,55.59
2019-02-21T08:12:32.505Z,53.89
2019-02-21T08:14:58.823Z,53.30
2019-02-21T08:17:27.767Z,51.85
2019-02-21T08:19:51.620Z,50.62
2019-02-21T08:22:18.043Z,48.62
2019-02-21T08:24:44.367Z,48.46
2019-02-21T08:27:10.679Z,47.37
2019-02-21T08:29:36.990Z,46.76
2019-02-21T08:32:03.310Z,46.72
2019-02-21T08:34:29.679Z,46.00
2019-02-21T08:36:55.992Z,46.15
2019-02-21T08:39:22.339Z,46.15
2019-02-21T08:41:48.651Z,44.85
2019-02-21T08:44:14.965Z,44.10
2019-02-21T08:46:41.275Z,44.46
2019-02-21T08:49:07.584Z,42.79
2019-02-21T08:51:33.897Z,43.61
2019-02-21T08:54:00.210Z,42.79
2019-02-21T08:56:26.524Z,43.78
2019-02-21T08:58:52.866Z,42.28
2019-02-21T09:01:19.255Z,42.36
2019-02-21T09:03:45.481Z,40.87
2019-02-21T09:06:13.000Z,41.19
2019-02-21T09:08:38.100Z,40.50
2019-02-21T09:11:04.454Z,40.78
2019-02-21T09:13:30.761Z,38.75
2019-02-21T09:15:57.069Z,38.48
2019-02-21T09:18:23.383Z,37.60
2019-02-21T09:20:49.754Z,38.85
2019-02-21T09:23:16.030Z,38.65
2019-02-21T09:25:42.327Z,38.59
2019-02-21T09:28:08.642Z,40.08
2019-02-21T09:30:34.954Z,40.31
2019-02-21T09:33:01.263Z,40.54
2019-02-21T09:35:27.626Z,39.75
2019-02-21T09:37:53.939Z,39.09
2019-02-21T09:40:20.248Z,37.63
2019-02-21T09:42:46.587Z,36.24
2019-02-21T09:45:14.827Z,37.24
2019-02-21T09:47:39.200Z,37.04
2019-02-21T09:50:05.505Z,37.85
2019-02-21T09:52:31.842Z,38.49
2019-02-21T09:54:58.149Z,35.80
2019-02-21T09:57:24.477Z,35.47
2019-02-21T09:59:50.786Z,35.38
2019-02-21T10:02:17.113Z,35.03
2019-02-21T10:04:43.416Z,35.35
2019-02-21T10:07:09.737Z,34.99
2019-02-21T10:09:36.136Z,36.58
2019-02-21T10:12:03.300Z,36.39
2019-02-21T10:14:28.656Z,36.09
2019-02-21T10:16:54.970Z,34.08
2019-02-21T10:19:21.277Z,33.63
2019-02-21T10:21:47.603Z,35.58
2019-02-21T10:24:13.907Z,36.04
2019-02-21T10:26:40.219Z,35.45
2019-02-21T10:29:06.523Z,34.56
2019-02-21T10:31:32.847Z,33.45
2019-02-21T10:33:59.223Z,33.18
2019-02-21T10:36:25.459Z,33.56
2019-02-21T10:38:51.767Z,34.07
2019-02-21T10:41:18.079Z,34.21
2019-02-21T10:43:44.398Z,33.01
2019-02-21T10:46:10.709Z,32.11
2019-02-21T10:48:37.019Z,32.93
2019-02-21T10:51:03.332Z,32.69
2019-02-21T10:53:29.643Z,33.22
2019-02-21T10:55:55.944Z,32.66
2019-02-21T10:58:22.259Z,31.60
2019-02-21T11:00:48.574Z,31.76
2019-02-21T11:03:14.880Z,31.88
2019-02-21T11:05:41.187Z,32.11
2019-02-21T11:08:07.497Z,31.79
2019-02-21T11:10:33.804Z,32.23
2019-02-21T11:13:00.115Z,31.70
2019-02-21T11:15:26.427Z,32.80
2019-02-21T11:17:52.743Z,32.74
2019-02-21T11:20:19.059Z,33.77
2019-02-21T11:22:45.370Z,34.29
2019-02-21T11:25:11.677Z,33.29
2019-02-21T11:27:37.993Z,32.61
2019-02-21T11:30:04.300Z,33.48
2019-02-21T11:32:30.624Z,32.43
2019-02-21T11:35:05.763Z,31.95
2019-02-21T11:37:23.257Z,31.87
2019-02-21T11:39:49.568Z,31.91
2019-02-21T11:42:15.872Z,32.32
2019-02-21T11:44:42.192Z,30.63
2019-02-21T11:47:08.508Z,31.07
2019-02-21T11:49:34.825Z,30.78
2019-02-21T11:52:09.786Z,30.87
2019-02-21T11:54:27.541Z,31.24
2019-02-21T11:56:53.757Z,31.79
2019-02-21T11:59:20.122Z,32.19
2019-02-21T12:01:46.371Z,32.47
2019-02-21T12:04:12.685Z,33.09
2019-02-21T12:06:38.999Z,32.78
2019-02-21T12:09:05.310Z,32.77
2019-02-21T12:11:31.609Z,31.89
2019-02-21T12:13:57.921Z,31.93
2019-02-21T12:16:24.228Z,31.52
2019-02-21T12:18:50.551Z,31.64
2019-02-21T12:21:16.856Z,31.54
2019-02-21T12:23:43.164Z,31.29
2019-02-21T12:26:09.474Z,32.36
2019-02-21T12:28:35.785Z,31.42
2019-02-21T12:31:02.187Z,30.67
2019-02-21T12:33:28.411Z,30.53
2019-02-21T12:35:54.712Z,31.31
2019-02-21T12:38:21.047Z,31.18
2019-02-21T12:40:47.354Z,31.47
2019-02-21T12:43:13.665Z,31.30
2019-02-21T12:45:39.979Z,31.66
2019-02-21T12:48:06.285Z,31.27
2019-02-21T12:50:43.649Z,31.13
2019-02-21T12:52:58.899Z,30.56
2019-02-21T12:55:29.245Z,30.25
2019-02-21T12:57:51.517Z,31.05
2019-02-21T13:00:17.827Z,30.79
2019-02-21T13:02:44.139Z,31.29
2019-02-21T13:05:10.450Z,31.46
2019-02-21T13:07:36.767Z,31.34
2019-02-21T13:10:03.081Z,31.14
2019-02-21T13:12:29.404Z,31.46
2019-02-21T13:14:55.714Z,30.96
2019-02-21T13:17:22.022Z,30.98
2019-02-21T13:19:48.341Z,31.37
2019-02-21T13:22:14.648Z,31.37
2019-02-21T13:24:40.956Z,31.43
2019-02-21T13:27:07.269Z,31.56
2019-02-21T13:29:33.578Z,32.06
2019-02-21T13:31:59.888Z,31.43
2019-02-21T13:34:26.216Z,31.07
2019-02-21T13:36:52.512Z,31.66
2019-02-21T13:39:18.828Z,32.03
2019-02-21T13:41:45.132Z,32.44
2019-02-21T13:44:11.445Z,32.88
2019-02-21T13:46:40.863Z,33.34
2019-02-21T13:49:04.055Z,33.81
2019-02-21T13:51:30.365Z,34.67
2019-02-21T13:53:56.689Z,34.89
2019-02-21T13:56:22.998Z,34.77
2019-02-21T13:58:49.323Z,35.05
2019-02-21T14:01:15.621Z,35.17
2019-02-21T14:03:41.936Z,35.08
2019-02-21T14:06:08.254Z,34.77
2019-02-21T14:08:34.563Z,34.91
2019-02-21T14:11:00.878Z,35.10
2019-02-21T14:13:27.190Z,35.69
2019-02-21T14:15:53.492Z,35.71
2019-02-21T14:18:19.805Z,35.89
2019-02-21T14:20:46.121Z,36.14
2019-02-21T14:23:12.427Z,35.96
2019-02-21T14:25:41.089Z,36.11
2019-02-21T14:28:05.040Z,36.16
2019-02-21T14:30:31.353Z,36.10
2019-02-21T14:32:57.996Z,35.96
2019-02-21T14:35:24.300Z,35.61
2019-02-21T14:37:50.609Z,35.68
2019-02-21T14:40:16.921Z,36.16
2019-02-21T14:42:43.224Z,36.01
2019-02-21T14:45:12.177Z,36.22
2019-02-21T14:47:35.845Z,36.28
2019-02-21T14:50:04.565Z,36.59
2019-02-21T14:52:28.463Z,37.01
2019-02-21T14:54:54.772Z,37.21
2019-02-21T14:57:21.082Z,36.91
2019-02-21T14:59:47.393Z,37.11
2019-02-21T15:02:13.697Z,36.98
2019-02-21T15:04:40.008Z,37.12
2019-02-21T15:07:06.684Z,37.30
2019-02-21T15:09:32.650Z,37.53
2019-02-21T15:11:58.957Z,37.56
2019-02-21T15:14:25.261Z,37.85
2019-02-21T15:16:51.574Z,37.80
2019-02-21T15:19:17.881Z,37.72
2019-02-21T15:21:44.209Z,37.78
2019-02-21T15:24:12.993Z,37.98
2019-02-21T15:26:36.837Z,37.93
2019-02-21T15:29:03.154Z,38.19
2019-02-21T15:31:29.551Z,38.46
2019-02-21T15:33:55.856Z,38.54
2019-02-21T15:36:22.166Z,38.74
2019-02-21T15:38:48.476Z,38.92
2019-02-21T15:41:14.785Z,38.90
2019-02-21T15:43:41.094Z,39.16
2019-02-21T15:46:07.578Z,39.29
2019-02-21T15:48:33.718Z,39.65
2019-02-21T15:51:00.023Z,39.89
2019-02-21T15:53:26.328Z,39.99
2019-02-21T15:55:52.643Z,40.09
2019-02-21T15:58:18.948Z,40.27
2019-02-21T16:00:45.259Z,40.45
2019-02-21T16:03:11.565Z,40.75
2019-02-21T16:05:37.881Z,40.71
2019-02-21T16:08:04.190Z,40.97
2019-02-21T16:10:30.524Z,41.05
2019-02-21T16:12:57.115Z,41.24
2019-02-21T16:15:23.172Z,41.37
2019-02-21T16:17:49.477Z,41.67
2019-02-21T16:20:15.800Z,41.94
2019-02-21T16:22:42.086Z,42.02
2019-02-21T16:25:08.395Z,42.17
2019-02-21T16:27:34.701Z,42.51
2019-02-21T16:30:01.008Z,42.84
2019-02-21T16:32:27.319Z,43.19
2019-02-21T16:34:53.662Z,43.58
2019-02-21T16:37:19.954Z,43.54
2019-02-21T16:39:46.260Z,43.86
2019-02-21T16:42:12.572Z,44.02
2019-02-21T16:44:38.885Z,44.08
2019-02-21T16:47:05.818Z,44.55
2019-02-21T16:49:31.499Z,44.75
2019-02-21T16:51:57.809Z,45.21
2019-02-21T16:54:24.112Z,45.47
2019-02-21T16:56:50.416Z,45.53
2019-02-21T16:59:16.724Z,45.95
2019-02-21T17:01:43.045Z,46.08
2019-02-21T17:04:09.356Z,46.24
2019-02-21T17:06:35.666Z,46.35
2019-02-21T17:09:01.971Z,46.47
2019-02-21T17:11:28.290Z,46.36
2019-02-21T17:13:54.592Z,46.69
2019-02-21T17:16:20.903Z,46.78
2019-02-21T17:18:47.210Z,49.24
2019-02-21T17:21:13.513Z,47.43
2019-02-21T17:23:39.827Z,47.11
2019-02-21T17:26:06.130Z,46.43
2019-02-21T17:28:32.430Z,46.92
2019-02-21T17:30:58.734Z,46.75
2019-02-21T17:33:25.052Z,46.72
2019-02-21T17:35:51.356Z,45.99
2019-02-21T17:38:17.665Z,46.11
2019-02-21T17:40:43.972Z,47.54
2019-02-21T17:43:10.285Z,47.07
2019-02-21T17:45:36.594Z,47.35
2019-02-21T17:48:02.905Z,47.72
2019-02-21T17:50:29.218Z,47.75
2019-02-21T17:52:55.546Z,48.14
2019-02-21T17:55:21.847Z,48.01
2019-02-21T17:57:48.160Z,48.26
2019-02-21T18:00:17.051Z,48.05
2019-02-21T18:02:40.790Z,48.23
2019-02-21T18:05:07.079Z,48.43
2019-02-21T18:07:36.413Z,48.42
2019-02-21T18:09:59.689Z,48.59
2019-02-21T18:12:25.994Z,48.51
2019-02-21T18:14:52.300Z,48.62
2019-02-21T18:17:18.606Z,48.42
2019-02-21T18:19:44.910Z,48.57
2019-02-21T18:22:11.258Z,48.56
2019-02-21T18:24:37.570Z,48.39
2019-02-21T18:27:03.902Z,48.58
2019-02-21T18:29:30.212Z,48.49
2019-02-21T18:31:56.516Z,48.13
2019-02-21T18:34:22.815Z,48.03
2019-02-21T18:36:49.119Z,48.11
2019-02-21T18:39:15.443Z,48.02
2019-02-21T18:41:41.748Z,48.01
2019-02-21T18:44:08.089Z,48.21
2019-02-21T18:46:34.397Z,48.25
2019-02-21T18:49:00.700Z,48.24
2019-02-21T18:51:27.333Z,48.57
2019-02-21T18:53:53.646Z,48.53
2019-02-21T18:56:19.955Z,48.63
2019-02-21T18:58:46.260Z,48.72
2019-02-21T19:01:12.571Z,48.87
2019-02-21T19:03:38.882Z,48.96
2019-02-21T19:06:05.227Z,49.07
2019-02-21T19:08:31.537Z,49.03
2019-02-21T19:10:57.843Z,49.28
2019-02-21T19:13:24.152Z,49.45
2019-02-21T19:15:50.456Z,49.38
2019-02-21T19:18:16.777Z,49.52
2019-02-21T19:20:43.083Z,49.70
2019-02-21T19:23:09.396Z,49.67
2019-02-21T19:25:35.738Z,49.75
2019-02-21T19:28:02.050Z,50.22
2019-02-21T19:30:28.441Z,50.06
2019-02-21T19:32:54.679Z,50.15
2019-02-21T19:35:20.984Z,50.36
2019-02-21T19:37:47.290Z,50.34
2019-02-21T19:40:13.614Z,50.63
2019-02-21T19:42:39.968Z,50.55
2019-02-21T19:45:06.279Z,50.91
2019-02-21T19:47:32.584Z,50.78
2019-02-21T19:49:58.889Z,51.26
2019-02-21T19:52:25.191Z,51.76
2019-02-21T19:54:51.509Z,51.47
2019-02-21T19:57:17.852Z,51.16
2019-02-21T19:59:44.284Z,52.29
2019-02-21T20:02:10.630Z,51.31
2019-02-21T20:04:36.939Z,53.38
2019-02-21T20:07:03.249Z,51.54
2019-02-21T20:09:29.558Z,51.48
2019-02-21T20:11:55.871Z,51.79
2019-02-21T20:14:22.188Z,52.27
2019-02-21T20:16:48.539Z,52.52
2019-02-21T20:19:14.847Z,53.15
2019-02-21T20:21:41.152Z,53.56
2019-02-21T20:24:07.455Z,53.20
2019-02-21T20:26:33.771Z,53.42
2019-02-21T20:29:00.080Z,53.26
2019-02-21T20:31:26.384Z,53.10
2019-02-21T20:33:52.692Z,53.26
2019-02-21T20:36:18.995Z,53.41
2019-02-21T20:38:45.298Z,53.43
2019-02-21T20:41:11.615Z,53.72
2019-02-21T20:43:37.925Z,53.35
2019-02-21T20:46:04.232Z,53.65
2019-02-21T20:48:30.725Z,53.74
2019-02-21T20:50:57.426Z,53.32
2019-02-21T20:53:23.174Z,53.46
2019-02-21T20:55:49.483Z,53.49
2019-02-21T20:58:15.788Z,53.91
2019-02-21T21:00:42.118Z,53.63
2019-02-21T21:03:08.421Z,54.07
2019-02-21T21:05:34.728Z,53.65
2019-02-21T21:08:01.036Z,53.85
2019-02-21T21:10:27.345Z,53.99
2019-02-21T21:12:53.656Z,53.76
2019-02-21T21:15:19.960Z,53.96
2019-02-21T21:17:46.273Z,53.65
2019-02-21T21:20:16.462Z,53.96
2019-02-21T21:22:38.884Z,53.60
2019-02-21T21:25:05.189Z,53.81
2019-02-21T21:27:31.495Z,53.62
2019-02-21T21:29:57.800Z,53.26
2019-02-21T21:32:24.111Z,52.93
2019-02-21T21:34:50.423Z,53.15
2019-02-21T21:37:16.734Z,53.43
2019-02-21T21:39:43.039Z,54.09
2019-02-21T21:42:09.356Z,53.94
2019-02-21T21:44:35.660Z,53.44
2019-02-21T21:47:01.964Z,54.12
2019-02-21T21:49:28.277Z,54.48
2019-02-21T21:51:54.579Z,54.00
2019-02-21T21:54:20.886Z,53.80
2019-02-21T21:56:47.192Z,53.69
2019-02-21T21:59:13.499Z,54.27
2019-02-21T22:01:39.817Z,53.93
2019-02-21T22:04:06.121Z,53.69
2019-02-21T22:06:32.429Z,53.96
2019-02-21T22:09:04.689Z,54.56
2019-02-21T22:11:25.075Z,54.97
2019-02-21T22:13:51.395Z,54.96
2019-02-21T22:16:17.734Z,55.02
2019-02-21T22:18:44.053Z,55.37
2019-02-21T22:21:10.386Z,55.73
2019-02-21T22:23:36.745Z,56.25
2019-02-21T22:26:03.040Z,57.22
2019-02-21T22:28:29.372Z,58.61
2019-02-21T22:30:57.944Z,59.27
2019-02-21T22:33:22.026Z,60.14
2019-02-21T22:35:48.352Z,60.89
2019-02-21T22:38:14.695Z,61.17
2019-02-21T22:40:41.013Z,61.53
2019-02-21T22:43:07.335Z,62.00
2019-02-21T22:45:33.665Z,62.62
2019-02-21T22:47:59.986Z,62.85
2019-02-21T22:50:26.944Z,62.43
2019-02-21T22:52:52.640Z,63.16
2019-02-21T22:55:18.969Z,62.50
2019-02-21T22:57:45.291Z,62.42
2019-02-21T23:00:11.615Z,62.87
2019-02-21T23:02:37.944Z,62.84
2019-02-21T23:05:04.277Z,61.90
2019-02-21T23:07:30.600Z,61.95
2019-02-21T23:09:56.917Z,62.22
2019-02-21T23:12:23.238Z,61.75
2019-02-21T23:14:49.563Z,62.19
2019-02-21T23:17:15.887Z,62.11
2019-02-21T23:19:42.195Z,61.93
2019-02-21T23:22:08.499Z,62.17
2019-02-21T23:24:34.818Z,62.16
2019-02-21T23:27:01.130Z,62.97
2019-02-21T23:29:27.436Z,63.84
2019-02-21T23:31:53.745Z,65.55
2019-02-21T23:34:20.072Z,66.04
2019-02-21T23:36:46.383Z,65.76
2019-02-21T23:39:12.691Z,65.12
2019-02-21T23:41:38.998Z,65.37
2019-02-21T23:44:05.312Z,65.06
2019-02-21T23:46:31.623Z,65.38
2019-02-21T23:48:57.928Z,65.32
2019-02-21T23:51:24.273Z,65.76
2019-02-21T23:53:50.584Z,66.25
2019-02-21T23:56:16.892Z,66.55
2019-02-21T23:58:43.206Z,66.51
